createdAt,value
2022-11-27T00:00:52.304Z,5.53
2022-11-27T00:06:00.216Z,5.49
2022-11-27T00:10:52.206Z,5.47
2022-11-27T00:15:51.502Z,5.41
2022-11-27T00:20:51.178Z,5.4
2022-11-27T00:25:57.331Z,5.42
2022-11-27T00:30:51.351Z,5.47
2022-11-27T00:35:51.074Z,5.44
2022-11-27T00:40:52.790Z,5.45
2022-11-27T00:45:52.131Z,5.49
2022-11-27T00:50:51.409Z,5.5
2022-11-27T00:55:53.333Z,5.48
2022-11-27T01:00:59.437Z,5.57
2022-11-27T01:05:52.181Z,5.58
2022-11-27T01:10:55.970Z,5.54
2022-11-27T01:15:51.532Z,5.58
2022-11-27T01:20:55.733Z,5.6
2022-11-27T01:25:53.190Z,5.57
2022-11-27T01:30:51.289Z,5.55
2022-11-27T01:35:56.389Z,5.54
2022-11-27T01:40:51.058Z,5.57
2022-11-27T01:45:51.279Z,5.56
2022-11-27T01:50:51.012Z,5.57
2022-11-27T01:55:52.157Z,5.55
2022-11-27T02:00:50.906Z,5.55
2022-11-27T02:05:51.049Z,5.54
2022-11-27T02:10:54.583Z,5.48
2022-11-27T02:15:54.570Z,5.46
2022-11-27T02:20:54.828Z,5.46
2022-11-27T02:25:57.142Z,5.42
2022-11-27T02:30:54.887Z,5.43
2022-11-27T02:35:54.746Z,5.48
2022-11-27T02:40:54.686Z,5.44
2022-11-27T02:46:06.706Z,5.48
2022-11-27T02:51:09.766Z,5.5
2022-11-27T02:56:07.400Z,5.58
2022-11-27T03:00:53.283Z,5.6
2022-11-27T03:06:02.838Z,5.61
2022-11-27T03:11:06.601Z,5.68
2022-11-27T03:19:03.742Z,5.7
2022-11-27T03:23:12.061Z,5.68
2022-11-27T03:28:26.333Z,5.68
2022-11-27T03:33:11.946Z,5.7
2022-11-27T03:38:00.726Z,5.73
2022-11-27T03:43:02.360Z,5.73
2022-11-27T03:48:06.622Z,5.74
2022-11-27T03:53:09.030Z,5.76
2022-11-27T03:58:03.411Z,5.76
2022-11-27T04:03:00.483Z,5.77
2022-11-27T04:08:01.123Z,5.78
2022-11-27T04:13:00.615Z,5.76
2022-11-27T04:18:00.210Z,5.83
2022-11-27T04:23:00.607Z,5.83
2022-11-27T04:27:59.592Z,5.84
2022-11-27T04:32:59.576Z,5.83
2022-11-27T04:37:59.804Z,5.85
2022-11-27T04:42:59.543Z,5.84
2022-11-27T04:47:59.880Z,5.81
2022-11-27T04:52:59.745Z,5.85
2022-11-27T04:57:59.738Z,5.83
2022-11-27T05:02:59.620Z,5.85
2022-11-27T05:07:59.624Z,5.83
2022-11-27T05:13:08.477Z,5.86
2022-11-27T05:18:10.223Z,5.86
2022-11-27T05:23:00.365Z,5.86
2022-11-27T05:27:59.717Z,5.83
2022-11-27T05:32:59.481Z,5.85
2022-11-27T05:37:59.892Z,5.84
2022-11-27T05:42:59.821Z,5.8
2022-11-27T05:47:59.785Z,5.75
2022-11-27T05:52:59.696Z,5.75
2022-11-27T05:57:59.828Z,5.75
2022-11-27T06:02:59.734Z,5.76
2022-11-27T06:07:59.687Z,5.71
2022-11-27T06:12:59.581Z,5.71
2022-11-27T06:17:59.637Z,5.71
2022-11-27T06:23:00.040Z,5.68
2022-11-27T06:27:59.516Z,5.67
2022-11-27T06:32:59.525Z,5.68
2022-11-27T06:37:59.504Z,5.68
2022-11-27T06:42:59.481Z,5.65
2022-11-27T06:47:59.664Z,5.66
2022-11-27T06:52:59.648Z,5.64
2022-11-27T06:57:59.665Z,5.63
2022-11-27T07:03:03.703Z,5.63
2022-11-27T07:07:59.538Z,5.61
2022-11-27T07:12:59.471Z,5.63
2022-11-27T07:17:59.581Z,5.63
2022-11-27T07:22:59.755Z,5.63
2022-11-27T07:27:59.537Z,5.66
2022-11-27T07:32:59.414Z,5.65
2022-11-27T07:37:59.548Z,5.64
2022-11-27T07:42:59.804Z,5.64
2022-11-27T07:47:59.487Z,5.65
2022-11-27T07:52:59.567Z,5.64
2022-11-27T07:57:59.483Z,5.69
2022-11-27T08:02:59.546Z,5.69
2022-11-27T08:07:59.544Z,5.73
2022-11-27T08:12:59.503Z,5.78
2022-11-27T08:17:59.437Z,5.76
2022-11-27T08:23:02.734Z,5.76
2022-11-27T08:27:59.664Z,5.82
2022-11-27T08:32:59.495Z,5.87
2022-11-27T08:37:59.430Z,5.84
2022-11-27T08:43:01.791Z,5.88
2022-11-27T08:47:59.363Z,5.91
2022-11-27T08:53:00.675Z,5.93
2022-11-27T08:57:59.437Z,5.96
2022-11-27T09:02:59.784Z,6
2022-11-27T09:07:59.676Z,6.01
2022-11-27T09:13:00.443Z,6.02
2022-11-27T09:17:59.528Z,6
2022-11-27T09:23:00.213Z,6.04
2022-11-27T09:28:01.263Z,6.02
2022-11-27T09:33:01.878Z,6
2022-11-27T09:37:59.689Z,6.03
2022-11-27T09:43:05.055Z,6.07
2022-11-27T09:48:02.070Z,6.08
2022-11-27T09:53:02.746Z,6.09
2022-11-27T09:58:04.535Z,6.1
2022-11-27T10:02:59.490Z,6.14
2022-11-27T10:08:07.170Z,6.13
2022-11-27T10:13:04.019Z,6.14
2022-11-27T10:18:02.205Z,6.16
2022-11-27T10:23:03.963Z,6.17
2022-11-27T10:28:04.307Z,6.2
2022-11-27T10:33:01.094Z,6.2
2022-11-27T10:38:06.323Z,6.23
2022-11-27T10:43:08.310Z,6.22
2022-11-27T10:47:59.516Z,6.25
2022-11-27T10:53:00.936Z,6.27
2022-11-27T10:58:06.858Z,6.29
2022-11-27T11:03:07.746Z,6.31
2022-11-27T11:08:08.252Z,6.32
2022-11-27T11:13:10.824Z,6.35
2022-11-27T11:17:59.685Z,6.38
2022-11-27T11:22:59.433Z,6.39
2022-11-27T11:27:59.815Z,6.41
2022-11-27T11:33:03.535Z,6.42
2022-11-27T11:38:01.305Z,6.45
2022-11-27T11:43:00.541Z,6.46
2022-11-27T11:47:59.930Z,6.49
2022-11-27T11:53:03.120Z,6.49
2022-11-27T11:58:10.169Z,6.5
2022-11-27T12:03:11.738Z,6.53
2022-11-27T12:08:09.227Z,6.53
2022-11-27T12:13:04.968Z,6.54
2022-11-27T12:18:02.508Z,6.54
2022-11-27T12:23:12.443Z,6.56
2022-11-27T12:28:08.987Z,6.58
2022-11-27T12:33:08.259Z,6.59
2022-11-27T12:38:04.207Z,6.6
2022-11-27T12:43:06.349Z,6.59
2022-11-27T12:48:02.819Z,6.61
2022-11-27T12:53:04.736Z,6.6
2022-11-27T12:58:03.351Z,6.6
2022-11-27T13:03:04.531Z,6.6
2022-11-27T13:08:00.396Z,6.6
2022-11-27T13:13:03.728Z,6.6
2022-11-27T13:18:03.521Z,6.61
2022-11-27T13:22:59.443Z,6.58
2022-11-27T13:28:00.009Z,6.59
2022-11-27T13:33:03.192Z,6.6
2022-11-27T13:38:03.957Z,6.61
2022-11-27T13:43:00.465Z,6.6
2022-11-27T13:48:00.328Z,6.6
2022-11-27T13:53:03.074Z,6.62
2022-11-27T13:58:00.962Z,6.62
2022-11-27T14:02:59.470Z,6.64
2022-11-27T14:08:01.082Z,6.65
2022-11-27T14:13:02.142Z,6.64
2022-11-27T14:18:09.354Z,6.65
2022-11-27T14:23:11.927Z,6.65
2022-11-27T14:28:02.527Z,6.65
2022-11-27T14:32:59.565Z,6.64
2022-11-27T14:38:09.615Z,6.64
2022-11-27T14:43:12.469Z,6.64
2022-11-27T14:47:59.649Z,6.64
2022-11-27T14:53:01.062Z,6.62
2022-11-27T14:58:01.493Z,6.62
2022-11-27T15:03:01.643Z,6.6
2022-11-27T15:08:00.846Z,6.6
2022-11-27T15:12:59.931Z,6.6
2022-11-27T15:18:01.223Z,6.59
2022-11-27T15:23:01.222Z,6.55
2022-11-27T15:27:59.451Z,6.55
2022-11-27T15:33:01.468Z,6.56
2022-11-27T15:38:04.290Z,6.54
2022-11-27T15:43:24.160Z,6.54
2022-11-27T15:48:08.177Z,6.53
2022-11-27T15:53:00.701Z,6.51
2022-11-27T15:57:59.446Z,6.51
2022-11-27T16:03:00.134Z,6.53
2022-11-27T16:08:01.965Z,6.51
2022-11-27T16:13:00.050Z,6.52
2022-11-27T16:17:59.455Z,6.5
2022-11-27T16:22:59.430Z,6.52
2022-11-27T16:28:03.068Z,6.5
2022-11-27T16:32:59.338Z,6.5
2022-11-27T16:37:59.560Z,6.5
2022-11-27T16:42:59.687Z,6.48
2022-11-27T16:47:59.520Z,6.49
2022-11-27T16:53:00.006Z,6.49
2022-11-27T16:57:59.680Z,6.49
2022-11-27T17:02:59.547Z,6.48
2022-11-27T17:07:59.683Z,6.46
2022-11-27T17:13:00.718Z,6.44
2022-11-27T17:18:00.369Z,6.43
2022-11-27T17:22:59.666Z,6.43
2022-11-27T17:27:59.698Z,6.41
2022-11-27T17:32:59.489Z,6.43
2022-11-27T17:37:59.420Z,6.41
2022-11-27T17:42:59.582Z,6.4
2022-11-27T17:48:00.044Z,6.37
2022-11-27T17:53:00.225Z,6.37
2022-11-27T17:57:59.720Z,6.36
2022-11-27T18:03:02.304Z,6.35
2022-11-27T18:08:00.309Z,6.36
2022-11-27T18:12:59.423Z,6.33
2022-11-27T18:17:59.530Z,6.33
2022-11-27T18:22:59.619Z,6.33
2022-11-27T18:27:59.477Z,6.31
2022-11-27T18:32:59.470Z,6.32
2022-11-27T18:37:59.631Z,6.29
2022-11-27T18:42:59.293Z,6.29
2022-11-27T18:48:02.912Z,6.28
2022-11-27T18:53:01.494Z,6.29
2022-11-27T18:57:59.411Z,6.28
2022-11-27T19:03:00.606Z,6.28
2022-11-27T19:08:01.661Z,6.27
2022-11-27T19:12:59.839Z,6.26
2022-11-27T19:17:59.433Z,6.27
2022-11-27T19:23:00.353Z,6.25
2022-11-27T19:28:01.764Z,6.26
2022-11-27T19:33:05.662Z,6.25
2022-11-27T19:37:59.521Z,6.24
2022-11-27T19:43:01.189Z,6.25
2022-11-27T19:48:00.193Z,6.23
2022-11-27T19:52:59.562Z,6.24
2022-11-27T19:57:59.395Z,6.24
2022-11-27T20:03:00.712Z,6.23
2022-11-27T20:08:00.960Z,6.22
2022-11-27T20:13:03.126Z,6.22
2022-11-27T20:17:59.395Z,6.22
2022-11-27T20:22:59.450Z,6.2
2022-11-27T20:27:59.508Z,6.21
2022-11-27T20:33:04.463Z,6.19
2022-11-27T20:37:59.190Z,6.2
2022-11-27T20:42:59.583Z,6.19
2022-11-27T20:47:59.329Z,6.18
2022-11-27T20:52:59.281Z,6.18
2022-11-27T20:57:59.653Z,6.18
2022-11-27T21:02:59.506Z,6.17
2022-11-27T21:08:00.445Z,6.16
2022-11-27T21:13:00.790Z,6.15
2022-11-27T21:17:59.566Z,6.14
2022-11-27T21:23:01.127Z,6.15
2022-11-27T21:28:02.576Z,6.15
2022-11-27T21:33:00.088Z,6.15
2022-11-27T21:37:59.403Z,6.13
2022-11-27T21:42:44.376Z,6.21
2022-11-27T21:47:12.364Z,6.14
2022-11-27T21:52:14.061Z,6.14
2022-11-27T21:57:11.353Z,6.13
2022-11-27T22:02:13.747Z,6.12
2022-11-27T22:07:11.802Z,6.13
2022-11-27T22:12:11.312Z,6.11
2022-11-27T22:17:11.412Z,6.11
2022-11-27T22:22:11.377Z,6.11
2022-11-27T22:27:12.851Z,6.11
2022-11-27T22:32:14.696Z,6.1
2022-11-27T22:37:11.511Z,6.09
2022-11-27T22:42:13.991Z,6.1
2022-11-27T22:47:11.290Z,6.09
2022-11-27T22:52:11.672Z,6.1
2022-11-27T22:57:11.385Z,6.1
2022-11-27T23:02:13.696Z,6.1
2022-11-27T23:07:13.981Z,6.09
2022-11-27T23:12:11.692Z,6.09
2022-11-27T23:17:11.212Z,6.1
2022-11-27T23:22:11.186Z,6.1
2022-11-27T23:27:11.360Z,6.11
2022-11-27T23:32:11.366Z,6.1
2022-11-27T23:37:11.246Z,6.12
2022-11-27T23:42:11.290Z,6.12
2022-11-27T23:47:13.960Z,6.13
2022-11-27T23:52:16.862Z,6.13
2022-11-27T23:57:13.415Z,6.14
